createdAt,value
2023-05-07T00:01:38.608Z,63.80
2023-05-07T00:04:24.465Z,67.97
2023-05-07T00:07:10.072Z,67.60
2023-05-07T00:09:55.601Z,65.70
2023-05-07T00:12:42.710Z,63.28
2023-05-07T00:15:31.293Z,58.72
2023-05-07T00:18:17.241Z,65.63
2023-05-07T00:21:02.891Z,61.90
2023-05-07T00:23:48.826Z,56.20
2023-05-07T00:26:34.503Z,62.45
2023-05-07T00:29:20.068Z,55.15
2023-05-07T00:32:06.255Z,55.88
2023-05-07T00:34:52.171Z,63.67
2023-05-07T00:37:37.942Z,55.90
2023-05-07T00:40:23.435Z,62.97
2023-05-07T00:43:09.998Z,57.47
2023-05-07T00:45:55.721Z,59.38
2023-05-07T00:48:41.894Z,61.22
2023-05-07T00:51:28.368Z,65.55
2023-05-07T00:54:14.696Z,61.13
2023-05-07T00:56:59.926Z,61.55
2023-05-07T00:59:45.321Z,62.75
2023-05-07T01:02:30.928Z,58.42
2023-05-07T01:05:19.587Z,57.55
2023-05-07T01:08:06.529Z,58.08
2023-05-07T01:10:53.104Z,60.63
2023-05-07T01:13:39.309Z,62.85
2023-05-07T01:16:25.169Z,62.45
2023-05-07T01:19:12.602Z,59.63
2023-05-07T01:22:04.430Z,58.28
2023-05-07T01:24:53.427Z,59.47
2023-05-07T01:27:38.582Z,66.57
2023-05-07T01:30:24.295Z,63.30
2023-05-07T01:33:13.318Z,65.85
2023-05-07T01:36:01.369Z,63.05
2023-05-07T01:38:47.091Z,70.90
2023-05-07T01:41:38.964Z,66.10
2023-05-07T01:44:25.416Z,66.18
2023-05-07T01:47:11.534Z,70.65
2023-05-07T01:49:57.442Z,71.50
2023-05-07T01:52:42.951Z,61.22
2023-05-07T01:55:28.491Z,65.07
2023-05-07T01:58:13.917Z,59.63
2023-05-07T02:01:00.291Z,60.60
2023-05-07T02:03:46.098Z,62.28
2023-05-07T02:06:39.314Z,57.63
2023-05-07T02:09:26.984Z,57.35
2023-05-07T02:12:12.365Z,60.17
2023-05-07T02:14:57.937Z,52.03
2023-05-07T02:18:03.479Z,54.33
2023-05-07T02:20:48.828Z,46.58
2023-05-07T02:23:34.641Z,46.28
2023-05-07T02:26:22.502Z,46.83
2023-05-07T02:29:08.000Z,43.38
2023-05-07T02:31:54.101Z,40.67
2023-05-07T02:34:39.388Z,42.33
2023-05-07T02:37:24.923Z,42.38
2023-05-07T02:40:11.560Z,38.88
2023-05-07T02:42:56.941Z,42.33
2023-05-07T02:45:42.520Z,37.03
2023-05-07T02:48:28.185Z,37.95
2023-05-07T02:51:13.673Z,39.53
2023-05-07T02:54:09.835Z,39.67
2023-05-07T02:56:55.428Z,36.13
2023-05-07T02:59:40.932Z,34.35
2023-05-07T03:02:26.668Z,36.67
2023-05-07T03:05:12.866Z,33.10
2023-05-07T03:07:58.394Z,33.13
2023-05-07T03:10:44.041Z,33.55
2023-05-07T03:13:29.389Z,33.42
2023-05-07T03:16:15.022Z,38.17
2023-05-07T03:19:00.572Z,34.47
2023-05-07T03:21:46.262Z,32.35
2023-05-07T03:24:32.153Z,31.60
2023-05-07T03:27:17.703Z,35.88
2023-05-07T03:30:05.296Z,35.08
2023-05-07T03:32:51.390Z,31.17
2023-05-07T03:35:37.154Z,33.88
2023-05-07T03:38:22.599Z,30.63
2023-05-07T03:41:11.722Z,30.42
2023-05-07T03:43:57.955Z,29.20
2023-05-07T03:46:43.861Z,32.08
2023-05-07T03:49:32.117Z,35.30
2023-05-07T03:52:23.315Z,31.38
2023-05-07T03:55:09.666Z,32.03
2023-05-07T03:57:57.721Z,31.92
2023-05-07T04:00:45.159Z,30.55
2023-05-07T04:03:40.994Z,30.73
2023-05-07T04:06:26.572Z,31.90
2023-05-07T04:09:12.704Z,32.13
2023-05-07T04:11:57.968Z,30.63
2023-05-07T04:14:45.149Z,32.72
2023-05-07T04:17:31.400Z,29.85
2023-05-07T04:20:18.618Z,32.58
2023-05-07T04:23:09.152Z,30.27
2023-05-07T04:25:55.356Z,33.25
2023-05-07T04:29:01.790Z,30.77
2023-05-07T04:31:51.682Z,33.13
2023-05-07T04:34:37.667Z,29.40
2023-05-07T04:37:23.476Z,30.52
2023-05-07T04:40:09.185Z,29.55
2023-05-07T04:42:54.732Z,31.02
2023-05-07T04:45:42.483Z,29.90
2023-05-07T04:48:29.909Z,27.60
2023-05-07T04:51:16.540Z,27.15
2023-05-07T04:54:02.273Z,26.80
2023-05-07T04:56:49.804Z,29.15
2023-05-07T04:59:35.389Z,27.52
2023-05-07T05:02:21.047Z,24.73
2023-05-07T05:05:07.668Z,23.40
2023-05-07T05:07:53.186Z,26.27
2023-05-07T05:10:42.894Z,24.00
2023-05-07T05:13:32.387Z,26.25
2023-05-07T05:16:19.646Z,23.08
2023-05-07T05:19:05.111Z,24.55
2023-05-07T05:21:52.867Z,23.50
2023-05-07T05:24:38.335Z,22.58
2023-05-07T05:27:24.156Z,27.02
2023-05-07T05:30:10.536Z,24.95
2023-05-07T05:32:57.552Z,25.33
2023-05-07T05:35:43.620Z,27.50
2023-05-07T05:38:31.461Z,27.95
2023-05-07T05:41:16.819Z,24.30
2023-05-07T05:44:02.614Z,25.88
2023-05-07T05:46:48.256Z,27.48
2023-05-07T05:49:33.991Z,27.98
2023-05-07T05:52:19.639Z,28.58
2023-05-07T05:55:07.136Z,28.45
2023-05-07T05:57:54.633Z,28.30
2023-05-07T06:00:40.660Z,33.13
2023-05-07T06:03:26.597Z,30.10
2023-05-07T06:06:13.421Z,29.88
2023-05-07T06:08:59.103Z,30.83
2023-05-07T06:11:51.270Z,27.48
2023-05-07T06:14:37.065Z,27.83
2023-05-07T06:17:22.728Z,26.80
2023-05-07T06:20:09.678Z,29.20
2023-05-07T06:22:55.519Z,27.40
2023-05-07T06:25:41.163Z,29.10
2023-05-07T06:28:28.714Z,30.55
2023-05-07T06:31:24.270Z,29.35
2023-05-07T06:34:17.034Z,28.65
2023-05-07T06:37:02.601Z,32.55
2023-05-07T06:40:07.102Z,27.20
2023-05-07T06:42:54.658Z,35.17
2023-05-07T06:46:02.770Z,29.90
2023-05-07T06:48:49.417Z,31.83
2023-05-07T06:51:35.399Z,29.45
2023-05-07T06:54:24.381Z,31.58
2023-05-07T06:57:10.040Z,31.90
2023-05-07T06:59:55.265Z,29.27
2023-05-07T07:02:41.449Z,35.72
2023-05-07T07:05:28.914Z,32.35
2023-05-07T07:08:19.036Z,31.83
2023-05-07T07:11:04.702Z,29.50
2023-05-07T07:13:51.775Z,28.77
2023-05-07T07:16:37.105Z,28.75
2023-05-07T07:19:22.324Z,27.15
2023-05-07T07:22:11.129Z,28.08
2023-05-07T07:24:57.532Z,28.67
2023-05-07T07:27:46.367Z,26.83
2023-05-07T07:30:33.938Z,28.90
2023-05-07T07:33:19.389Z,28.00
2023-05-07T07:36:06.873Z,27.30
2023-05-07T07:38:52.813Z,27.92
2023-05-07T07:41:38.439Z,27.35
2023-05-07T07:44:23.925Z,24.60
2023-05-07T07:47:15.477Z,25.48
2023-05-07T07:50:01.567Z,27.45
2023-05-07T07:52:47.301Z,26.42
2023-05-07T07:55:40.045Z,24.77
2023-05-07T07:58:25.863Z,22.70
2023-05-07T08:01:13.545Z,24.27
2023-05-07T08:04:00.238Z,28.27
2023-05-07T08:06:47.571Z,24.30
2023-05-07T08:09:33.959Z,23.52
2023-05-07T08:12:21.660Z,22.88
2023-05-07T08:15:08.389Z,25.00
2023-05-07T08:17:53.858Z,20.88
2023-05-07T08:20:40.644Z,20.67
2023-05-07T08:23:29.079Z,18.52
2023-05-07T08:26:15.075Z,17.42
2023-05-07T08:29:01.849Z,17.92
2023-05-07T08:31:47.524Z,18.23
2023-05-07T08:34:33.064Z,17.70
2023-05-07T08:37:21.852Z,14.95
2023-05-07T08:40:10.742Z,15.45
2023-05-07T08:42:59.058Z,14.63
2023-05-07T08:45:47.057Z,14.55
2023-05-07T08:48:34.236Z,14.38
2023-05-07T08:51:30.994Z,14.60
2023-05-07T08:54:20.931Z,15.10
2023-05-07T08:57:07.531Z,14.18
2023-05-07T08:59:54.556Z,11.80
2023-05-07T09:02:40.188Z,12.00
2023-05-07T09:05:26.999Z,13.52
2023-05-07T09:08:17.060Z,15.30
2023-05-07T09:11:04.704Z,13.55
2023-05-07T09:13:58.675Z,13.48
2023-05-07T09:19:31.343Z,13.13
2023-05-07T09:22:20.084Z,14.70
2023-05-07T09:25:17.340Z,13.73
2023-05-07T09:28:04.836Z,13.80
2023-05-07T09:30:51.068Z,11.05
2023-05-07T09:33:36.521Z,14.32
2023-05-07T09:36:23.755Z,11.40
2023-05-07T09:39:09.300Z,10.75
2023-05-07T09:41:55.550Z,11.60
2023-05-07T09:44:48.886Z,10.52
2023-05-07T09:47:42.623Z,10.50
2023-05-07T09:50:31.472Z,12.15
2023-05-07T09:53:18.318Z,8.15
2023-05-07T09:56:05.371Z,11.20
2023-05-07T09:58:55.216Z,7.63
2023-05-07T10:01:43.450Z,9.45
2023-05-07T10:04:30.324Z,8.85
2023-05-07T10:07:17.654Z,9.15
2023-05-07T10:10:05.190Z,10.48
2023-05-07T10:12:56.222Z,9.20
2023-05-07T10:15:49.057Z,9.80
2023-05-07T10:18:35.227Z,10.30
2023-05-07T10:21:30.755Z,10.38
2023-05-07T10:24:32.685Z,8.18
2023-05-07T10:27:21.011Z,9.85
2023-05-07T10:30:22.767Z,12.50
2023-05-07T10:33:11.979Z,14.68
2023-05-07T10:36:03.909Z,10.68
2023-05-07T10:38:52.308Z,10.00
2023-05-07T10:41:38.124Z,14.77
2023-05-07T10:44:28.944Z,8.88
2023-05-07T10:47:19.674Z,10.55
2023-05-07T10:50:08.413Z,8.80
2023-05-07T10:53:17.147Z,7.75
2023-05-07T10:56:17.966Z,7.95
2023-05-07T10:59:31.589Z,11.77
2023-05-07T11:02:21.601Z,9.32
2023-05-07T11:05:24.396Z,7.10
2023-05-07T11:08:17.179Z,11.15
2023-05-07T11:11:11.928Z,11.57
2023-05-07T11:13:57.180Z,9.35
2023-05-07T11:16:50.859Z,9.93
2023-05-07T11:19:55.722Z,7.03
2023-05-07T11:23:34.940Z,7.72
2023-05-07T11:26:52.264Z,8.80
2023-05-07T11:29:39.918Z,6.88
2023-05-07T11:32:33.572Z,9.63
2023-05-07T11:35:24.675Z,9.38
2023-05-07T11:38:11.778Z,10.00
2023-05-07T11:41:03.553Z,12.88
2023-05-07T11:44:00.207Z,8.57
2023-05-07T11:46:46.283Z,8.73
2023-05-07T11:49:31.438Z,8.02
2023-05-07T11:52:18.221Z,11.05
2023-05-07T11:55:07.237Z,12.13
2023-05-07T11:57:52.591Z,7.68
2023-05-07T12:00:37.869Z,9.82
2023-05-07T12:03:23.618Z,10.77
2023-05-07T12:06:09.031Z,10.20
2023-05-07T12:08:54.489Z,8.20
2023-05-07T12:11:41.064Z,9.30
2023-05-07T12:14:30.009Z,10.27
2023-05-07T12:17:16.311Z,12.25
2023-05-07T12:20:01.912Z,10.10
2023-05-07T12:22:50.067Z,7.82
2023-05-07T12:25:49.058Z,11.32
2023-05-07T12:28:39.904Z,10.02
2023-05-07T12:31:29.337Z,10.52
2023-05-07T12:34:14.830Z,10.75
2023-05-07T12:37:04.617Z,9.65
2023-05-07T12:39:50.801Z,10.02
2023-05-07T12:42:40.714Z,12.57
2023-05-07T12:45:30.517Z,10.50
2023-05-07T12:48:16.117Z,13.15
2023-05-07T12:51:03.272Z,11.55
2023-05-07T12:53:48.658Z,14.63
2023-05-07T12:56:37.555Z,14.85
2023-05-07T12:59:36.088Z,11.50
2023-05-07T13:02:24.027Z,11.60
2023-05-07T13:05:10.791Z,12.48
2023-05-07T13:07:59.611Z,13.75
2023-05-07T13:10:44.692Z,13.30
2023-05-07T13:13:34.315Z,14.90
2023-05-07T13:16:22.341Z,13.45
2023-05-07T13:19:08.093Z,19.17
2023-05-07T13:21:59.440Z,16.33
2023-05-07T13:24:44.957Z,17.00
2023-05-07T13:27:31.741Z,11.57
2023-05-07T13:30:16.887Z,13.60
2023-05-07T13:33:02.995Z,13.95
2023-05-07T13:35:48.175Z,16.75
2023-05-07T13:38:33.805Z,13.85
2023-05-07T13:41:22.057Z,19.15
2023-05-07T13:44:07.457Z,14.20
2023-05-07T13:46:52.917Z,17.48
2023-05-07T13:49:38.387Z,14.70
2023-05-07T13:52:24.011Z,12.43
2023-05-07T13:55:10.125Z,15.98
2023-05-07T13:57:57.876Z,14.95
2023-05-07T14:00:46.527Z,18.45
2023-05-07T14:03:33.901Z,19.23
2023-05-07T14:06:19.618Z,22.77
2023-05-07T14:09:05.262Z,19.73
2023-05-07T14:11:52.550Z,18.63
2023-05-07T14:14:38.106Z,19.95
2023-05-07T14:17:26.478Z,19.15
2023-05-07T14:20:13.754Z,23.13
2023-05-07T14:23:02.321Z,26.88
2023-05-07T14:25:48.655Z,27.33
2023-05-07T14:28:34.539Z,25.63
2023-05-07T14:31:20.265Z,23.58
2023-05-07T14:34:05.734Z,23.23
2023-05-07T14:36:51.365Z,21.80
2023-05-07T14:39:36.965Z,24.13
2023-05-07T14:42:22.388Z,22.35
2023-05-07T14:45:08.242Z,19.60
2023-05-07T14:47:53.510Z,17.15
2023-05-07T14:50:38.956Z,16.90
2023-05-07T14:53:27.535Z,17.65
2023-05-07T14:56:13.077Z,15.18
2023-05-07T14:58:58.760Z,13.70
2023-05-07T15:01:46.577Z,10.75
2023-05-07T15:04:32.424Z,9.10
2023-05-07T15:07:18.406Z,7.18
2023-05-07T15:10:05.044Z,6.85
2023-05-07T15:12:51.725Z,10.57
2023-05-07T15:15:37.055Z,13.18
2023-05-07T15:18:23.142Z,11.82
2023-05-07T15:21:09.307Z,16.73
2023-05-07T15:23:55.685Z,18.23
2023-05-07T15:26:40.896Z,17.60
2023-05-07T15:29:29.106Z,18.05
2023-05-07T15:32:19.695Z,16.08
2023-05-07T15:35:06.447Z,17.85
2023-05-07T15:37:52.218Z,19.33
2023-05-07T15:40:42.550Z,18.52
2023-05-07T15:43:28.349Z,17.60
2023-05-07T15:46:18.317Z,20.65
2023-05-07T15:49:11.108Z,18.08
2023-05-07T15:51:56.795Z,17.70
2023-05-07T15:54:43.857Z,22.25
2023-05-07T15:57:30.673Z,18.45
2023-05-07T16:00:17.441Z,26.00
2023-05-07T16:03:03.077Z,17.00
2023-05-07T16:05:48.896Z,18.17
2023-05-07T16:08:34.580Z,21.33
2023-05-07T16:11:20.180Z,18.48
2023-05-07T16:14:05.677Z,19.50
2023-05-07T16:16:52.068Z,16.30
2023-05-07T16:19:38.497Z,13.70
2023-05-07T16:22:25.655Z,22.77
2023-05-07T16:25:14.788Z,18.42
2023-05-07T16:28:00.674Z,19.00
2023-05-07T16:30:46.077Z,17.98
2023-05-07T16:33:31.532Z,17.17
2023-05-07T16:36:21.458Z,16.80
2023-05-07T16:39:06.875Z,15.90
2023-05-07T16:41:53.961Z,14.60
2023-05-07T16:44:39.245Z,18.67
2023-05-07T16:47:25.154Z,15.82
2023-05-07T16:50:11.519Z,14.05
2023-05-07T16:52:57.948Z,18.50
2023-05-07T16:55:48.601Z,20.95
2023-05-07T16:58:34.463Z,18.70
2023-05-07T17:01:19.797Z,24.05
2023-05-07T17:04:05.637Z,17.10
2023-05-07T17:06:51.183Z,21.60
2023-05-07T17:09:36.585Z,20.20
2023-05-07T17:12:22.940Z,19.98
2023-05-07T17:15:09.067Z,23.38
2023-05-07T17:17:54.191Z,21.17
2023-05-07T17:20:40.237Z,20.10
2023-05-07T17:23:26.070Z,22.48
2023-05-07T17:26:15.068Z,20.25
2023-05-07T17:29:01.142Z,23.70
2023-05-07T17:31:46.576Z,20.08
2023-05-07T17:34:32.529Z,21.63
2023-05-07T17:37:18.427Z,25.75
2023-05-07T17:40:05.149Z,24.67
2023-05-07T17:42:53.696Z,25.35
2023-05-07T17:45:40.623Z,27.13
2023-05-07T17:48:25.889Z,27.20
2023-05-07T17:51:11.400Z,26.15
2023-05-07T17:53:56.815Z,21.65
2023-05-07T17:56:42.477Z,25.73
2023-05-07T17:59:31.893Z,27.15
2023-05-07T18:02:17.672Z,26.00
2023-05-07T18:05:03.719Z,25.27
2023-05-07T18:07:49.260Z,25.02
2023-05-07T18:10:34.700Z,27.95
2023-05-07T18:13:19.992Z,27.48
2023-05-07T18:16:06.399Z,24.67
2023-05-07T18:18:51.822Z,27.73
2023-05-07T18:21:37.042Z,29.23
2023-05-07T18:24:22.824Z,29.23
2023-05-07T18:27:10.793Z,30.35
2023-05-07T18:29:56.109Z,27.23
2023-05-07T18:32:41.552Z,28.45
2023-05-07T18:35:26.774Z,28.75
2023-05-07T18:38:12.142Z,33.75
2023-05-07T18:41:05.558Z,32.40
2023-05-07T18:43:50.889Z,34.03
2023-05-07T18:46:36.559Z,37.83
2023-05-07T18:49:24.666Z,38.55
2023-05-07T18:52:12.107Z,39.50
2023-05-07T18:54:57.769Z,32.53
2023-05-07T18:57:46.409Z,35.20
2023-05-07T19:00:31.554Z,36.45
2023-05-07T19:03:17.403Z,40.22
2023-05-07T19:06:06.067Z,34.10
2023-05-07T19:08:54.025Z,35.05
2023-05-07T19:11:39.327Z,38.22
2023-05-07T19:14:24.895Z,33.20
2023-05-07T19:17:10.697Z,34.60
2023-05-07T19:19:55.931Z,39.63
2023-05-07T19:22:41.850Z,38.10
2023-05-07T19:25:27.381Z,47.10
2023-05-07T19:28:12.868Z,43.10
2023-05-07T19:30:58.522Z,42.45
2023-05-07T19:33:43.968Z,42.58
2023-05-07T19:36:30.039Z,41.25
2023-05-07T19:39:18.725Z,42.08
2023-05-07T19:42:05.576Z,43.55
2023-05-07T19:44:51.305Z,41.58
2023-05-07T19:47:37.888Z,39.72
2023-05-07T19:50:23.475Z,40.40
2023-05-07T19:53:08.938Z,38.35
2023-05-07T19:56:05.629Z,40.20
2023-05-07T19:58:53.093Z,38.17
2023-05-07T20:01:42.060Z,42.47
2023-05-07T20:04:31.793Z,35.22
2023-05-07T20:07:17.615Z,33.38
2023-05-07T20:10:02.873Z,33.15
2023-05-07T20:12:49.912Z,34.47
2023-05-07T20:15:41.503Z,24.90
2023-05-07T20:18:28.130Z,26.60
2023-05-07T20:21:13.658Z,29.05
2023-05-07T20:23:58.907Z,26.40
2023-05-07T20:26:44.435Z,27.95
2023-05-07T20:29:30.359Z,22.60
2023-05-07T20:32:16.027Z,26.02
2023-05-07T20:35:01.502Z,24.73
2023-05-07T20:37:47.019Z,24.73
2023-05-07T20:40:34.521Z,26.08
2023-05-07T20:43:21.845Z,25.63
2023-05-07T20:46:08.130Z,26.20
2023-05-07T20:48:53.826Z,29.73
2023-05-07T20:51:39.540Z,29.70
2023-05-07T20:54:28.129Z,35.97
2023-05-07T20:57:14.364Z,38.45
2023-05-07T20:59:59.535Z,40.30
2023-05-07T21:02:45.659Z,42.03
2023-05-07T21:05:32.447Z,50.10
2023-05-07T21:08:18.424Z,65.20
2023-05-07T21:11:05.910Z,68.40
2023-05-07T21:13:52.249Z,82.55
2023-05-07T21:16:37.521Z,88.50
2023-05-07T21:19:22.900Z,112.03
2023-05-07T21:22:08.664Z,129.20
2023-05-07T21:24:54.127Z,138.40
2023-05-07T21:27:39.187Z,147.23
2023-05-07T21:30:27.901Z,155.30
2023-05-07T21:33:13.612Z,150.80
2023-05-07T21:35:58.843Z,131.52
2023-05-07T21:38:44.977Z,125.53
2023-05-07T21:41:30.626Z,143.05
2023-05-07T21:44:16.008Z,155.00
2023-05-07T21:47:01.617Z,162.43
2023-05-07T21:49:48.493Z,190.48
2023-05-07T21:52:33.844Z,219.02
2023-05-07T21:55:19.583Z,209.07
2023-05-07T21:58:06.180Z,232.40
2023-05-07T22:00:51.752Z,294.00
2023-05-07T22:03:37.529Z,321.77
2023-05-07T22:06:24.794Z,331.13
2023-05-07T22:09:10.671Z,300.15
2023-05-07T22:11:56.436Z,328.98
2023-05-07T22:14:43.696Z,333.05
2023-05-07T22:17:29.455Z,330.20
2023-05-07T22:20:15.112Z,320.27
2023-05-07T22:23:00.482Z,333.48
2023-05-07T22:25:49.155Z,321.52
2023-05-07T22:28:34.348Z,316.55
2023-05-07T22:31:20.071Z,312.88
2023-05-07T22:34:05.479Z,299.67
2023-05-07T22:36:50.805Z,309.45
2023-05-07T22:39:36.606Z,294.33
2023-05-07T22:42:22.007Z,297.92
2023-05-07T22:45:07.808Z,300.17
2023-05-07T22:47:53.507Z,288.83
2023-05-07T22:50:39.274Z,298.08
2023-05-07T22:53:27.491Z,312.35
2023-05-07T22:56:13.044Z,321.02
2023-05-07T22:58:58.480Z,347.73
2023-05-07T23:01:44.257Z,371.98
2023-05-07T23:04:29.747Z,378.80
2023-05-07T23:07:15.276Z,385.98
2023-05-07T23:10:00.976Z,392.23
2023-05-07T23:12:49.499Z,438.25
2023-05-07T23:15:34.975Z,428.13
2023-05-07T23:18:20.357Z,425.98
2023-05-07T23:21:06.859Z,428.25
2023-05-07T23:23:52.164Z,411.80
2023-05-07T23:26:37.492Z,432.58
2023-05-07T23:29:23.091Z,495.35
2023-05-07T23:32:08.774Z,535.83
2023-05-07T23:34:55.782Z,510.08
2023-05-07T23:37:42.231Z,565.13
2023-05-07T23:40:30.330Z,538.80
2023-05-07T23:43:16.640Z,569.50
2023-05-07T23:46:02.690Z,566.28
2023-05-07T23:48:48.520Z,1018.60
2023-05-07T23:51:33.816Z,1373.28
2023-05-07T23:54:19.599Z,895.40
2023-05-07T23:57:04.722Z,919.33
2023-05-07T23:59:50.291Z,674.60
